<?xml version='1.0' encoding='UTF-8'?><gpx version="1.1" creator="JPX - https://github.com/jenetics/jpx" xmlns="http://www.topografix.com/GPX/1/1"><trk><trkseg><trkpt lat="46.2115654137006" lon="10.16162387447705"><ele>423.0</ele><time>2026-05-02T06:01:18Z</time></trkpt><trkpt lat="46.21161829211419" lon="10.161693619721934"><ele>423.0</ele><time>2026-05-02T06:01:36Z</time></trkpt><trkpt lat="46.211660252099364" lon="10.16176306968438"><ele>423.0</ele><time>2026-05-02T06:01:41Z</time></trkpt><trkpt lat="46.2116951442175" lon="10.16184417472036"><ele>423.0</ele><time>2026-05-02T06:01:46Z</time></trkpt><trkpt lat="46.21173393843155" lon="10.161923861813825"><ele>423.0</ele><time>2026-05-02T06:01:53Z</time></trkpt><trkpt lat="46.21176482910169" lon="10.162005165491985"><ele>423.0</ele><time>2026-05-02T06:01:58Z</time></trkpt><trkpt lat="46.211802408274465" lon="10.162087156425414"><ele>423.0</ele><time>2026-05-02T06:02:04Z</time></trkpt><trkpt lat="46.21184342259953" lon="10.162159684668637"><ele>423.0</ele><time>2026-05-02T06:02:09Z</time></trkpt><trkpt lat="46.21189230943316" lon="10.162231687776481"><ele>423.0</ele><time>2026-05-02T06:02:14Z</time></trkpt><trkpt lat="46.21192524470409" lon="10.162329168299145"><ele>423.0</ele><time>2026-05-02T06:02:19Z</time></trkpt><trkpt lat="46.211970546246626" lon="10.162403036857569"><ele>423.0</ele><time>2026-05-02T06:02:24Z</time></trkpt><trkpt lat="46.21202563810091" lon="10.162464538953397"><ele>423.0</ele><time>2026-05-02T06:02:29Z</time></trkpt><trkpt lat="46.21206239680742" lon="10.162540537219828"><ele>423.0</ele><time>2026-05-02T06:02:34Z</time></trkpt><trkpt lat="46.21210678489718" lon="10.16260941967524"><ele>423.0</ele><time>2026-05-02T06:02:41Z</time></trkpt><trkpt lat="46.21215599803803" lon="10.162685753339874"><ele>423.2857142857143</ele><time>2026-05-02T06:02:46Z</time></trkpt><trkpt lat="46.212197917741555" lon="10.162757177324456"><ele>423.5714285714286</ele><time>2026-05-02T06:02:52Z</time></trkpt><trkpt lat="46.21222256535536" lon="10.162841702539016"><ele>423.8571428571429</ele><time>2026-05-02T06:02:56Z</time></trkpt><trkpt lat="46.21224433663291" lon="10.162938565510865"><ele>424.1428571428571</ele><time>2026-05-02T06:03:02Z</time></trkpt><trkpt lat="46.21226433935285" lon="10.163026153349335"><ele>424.42857142857144</ele><time>2026-05-02T06:03:07Z</time></trkpt><trkpt lat="46.21231331244016" lon="10.16308803931992"><ele>424.7142857142857</ele><time>2026-05-02T06:03:13Z</time></trkpt><trkpt lat="46.21237890331059" lon="10.163083290969764"><ele>425.0</ele><time>2026-05-02T06:03:18Z</time></trkpt><trkpt lat="46.21243945792685" lon="10.163025493152048"><ele>425.0</ele><time>2026-05-02T06:03:25Z</time></trkpt><trkpt lat="46.212474497642496" lon="10.162931425961206"><ele>425.0</ele><time>2026-05-02T06:03:30Z</time></trkpt><trkpt lat="46.21250567080055" lon="10.162847084146321"><ele>425.0</ele><time>2026-05-02T06:03:36Z</time></trkpt><trkpt lat="46.21254979882675" lon="10.162781765307617"><ele>425.0</ele><time>2026-05-02T06:03:42Z</time></trkpt><trkpt lat="46.21260636534767" lon="10.162866568744866"><ele>425.0</ele><time>2026-05-02T06:03:47Z</time></trkpt><trkpt lat="46.212649690828236" lon="10.162970562238556"><ele>425.0</ele><time>2026-05-02T06:03:51Z</time></trkpt><trkpt lat="46.212690788271836" lon="10.163042561470288"><ele>425.0</ele><time>2026-05-02T06:03:54Z</time></trkpt><trkpt lat="46.21271905789025" lon="10.16312922288025"><ele>425.1428571428571</ele><time>2026-05-02T06:03:59Z</time></trkpt><trkpt lat="46.21275096744185" lon="10.163208227677586"><ele>425.2857142857143</ele><time>2026-05-02T06:04:04Z</time></trkpt><trkpt lat="46.21279405370334" lon="10.16330465941839"><ele>425.42857142857144</ele><time>2026-05-02T06:04:10Z</time></trkpt><trkpt lat="46.212822874298645" lon="10.163387193055945"><ele>425.57142857142856</ele><time>2026-05-02T06:04:15Z</time></trkpt><trkpt lat="46.21285123823699" lon="10.163485437211918"><ele>425.7142857142857</ele><time>2026-05-02T06:04:20Z</time></trkpt><trkpt lat="46.21287390743421" lon="10.163572086756185"><ele>425.85714285714283</ele><time>2026-05-02T06:04:25Z</time></trkpt><trkpt lat="46.212909868404935" lon="10.163660646566742"><ele>426.0</ele><time>2026-05-02T06:04:31Z</time></trkpt><trkpt lat="46.21293655426937" lon="10.163748086775216"><ele>425.99999999999994</ele><time>2026-05-02T06:04:38Z</time></trkpt><trkpt lat="46.212972946347826" lon="10.163834718497988"><ele>426.0</ele><time>2026-05-02T06:04:44Z</time></trkpt><trkpt lat="46.21300284465471" lon="10.163922578037038"><ele>426.0</ele><time>2026-05-02T06:04:49Z</time></trkpt><trkpt lat="46.21302398480972" lon="10.164018915068615"><ele>426.0</ele><time>2026-05-02T06:04:54Z</time></trkpt><trkpt lat="46.21306071871095" lon="10.164106974561333"><ele>426.0</ele><time>2026-05-02T06:05:00Z</time></trkpt><trkpt lat="46.21307892504312" lon="10.164196720693862"><ele>425.99999999999994</ele><time>2026-05-02T06:05:05Z</time></trkpt><trkpt lat="46.21311386507563" lon="10.164285535514582"><ele>426.0</ele><time>2026-05-02T06:05:11Z</time></trkpt><trkpt lat="46.213140727096494" lon="10.164383413325012"><ele>425.99999999999994</ele><time>2026-05-02T06:05:16Z</time></trkpt><trkpt lat="46.21317586252479" lon="10.164475939541939"><ele>426.0</ele><time>2026-05-02T06:05:23Z</time></trkpt><trkpt lat="46.21321783262981" lon="10.164557087737826"><ele>426.0</ele><time>2026-05-02T06:05:28Z</time></trkpt><trkpt lat="46.21323907152442" lon="10.164645770717156"><ele>426.0</ele><time>2026-05-02T06:05:33Z</time></trkpt><trkpt lat="46.213269182083735" lon="10.164740994177606"><ele>426.0</ele><time>2026-05-02T06:05:39Z</time></trkpt><trkpt lat="46.21328865051816" lon="10.164829043517186"><ele>425.99999999999994</ele><time>2026-05-02T06:05:44Z</time></trkpt><trkpt lat="46.21332190821567" lon="10.164922984032255"><ele>426.0</ele><time>2026-05-02T06:05:50Z</time></trkpt><trkpt lat="46.21335286937961" lon="10.165016538095824"><ele>425.99999999999994</ele><time>2026-05-02T06:05:56Z</time></trkpt><trkpt lat="46.21336408100324" lon="10.165106307758515"><ele>426.0</ele><time>2026-05-02T06:06:02Z</time></trkpt><trkpt lat="46.21338162990488" lon="10.165197675012983"><ele>426.0</ele><time>2026-05-02T06:06:07Z</time></trkpt><trkpt lat="46.21341098777534" lon="10.165298056109217"><ele>426.0</ele><time>2026-05-02T06:06:13Z</time></trkpt><trkpt lat="46.21343846784877" lon="10.16538681439439"><ele>426.0</ele><time>2026-05-02T06:06:19Z</time></trkpt><trkpt lat="46.21346077111894" lon="10.165472033876968"><ele>425.99999999999994</ele><time>2026-05-02T06:06:24Z</time></trkpt><trkpt lat="46.21348096051227" lon="10.165562173178031"><ele>426.0</ele><time>2026-05-02T06:06:29Z</time></trkpt><trkpt lat="46.21350165424644" lon="10.165655607881654"><ele>426.2857142857143</ele><time>2026-05-02T06:06:35Z</time></trkpt><trkpt lat="46.213509026229566" lon="10.16576481689344"><ele>426.57142857142856</ele><time>2026-05-02T06:06:42Z</time></trkpt><trkpt lat="46.213533982904394" lon="10.165873320486748"><ele>426.8571428571429</ele><time>2026-05-02T06:06:48Z</time></trkpt><trkpt lat="46.21356463456884" lon="10.165964607231945"><ele>427.1428571428571</ele><time>2026-05-02T06:06:54Z</time></trkpt><trkpt lat="46.21359120266438" lon="10.166052761407263"><ele>427.42857142857144</ele><time>2026-05-02T06:06:59Z</time></trkpt><trkpt lat="46.21362987051126" lon="10.166130258288225"><ele>427.7142857142857</ele><time>2026-05-02T06:07:04Z</time></trkpt><trkpt lat="46.21365414757977" lon="10.166222370627102"><ele>428.0</ele><time>2026-05-02T06:07:09Z</time></trkpt><trkpt lat="46.21368693905332" lon="10.166312692030617"><ele>428.00000000000006</ele><time>2026-05-02T06:07:17Z</time></trkpt><trkpt lat="46.213698900235286" lon="10.166413954786169"><ele>428.0</ele><time>2026-05-02T06:07:22Z</time></trkpt><trkpt lat="46.21372656724214" lon="10.166519333688093"><ele>428.0</ele><time>2026-05-02T06:07:28Z</time></trkpt><trkpt lat="46.21374738304792" lon="10.166616395052637"><ele>428.0</ele><time>2026-05-02T06:07:33Z</time></trkpt><trkpt lat="46.213776820389434" lon="10.166700808680147"><ele>428.0</ele><time>2026-05-02T06:07:40Z</time></trkpt><trkpt lat="46.21379872820072" lon="10.166792930142668"><ele>428.00000000000006</ele><time>2026-05-02T06:07:44Z</time></trkpt><trkpt lat="46.21382470259677" lon="10.16689479832226"><ele>428.0</ele><time>2026-05-02T06:07:50Z</time></trkpt><trkpt lat="46.213857084899736" lon="10.166989254704795"><ele>428.00000000000006</ele><time>2026-05-02T06:07:55Z</time></trkpt><trkpt lat="46.213894112918055" lon="10.167070917431795"><ele>428.0</ele><time>2026-05-02T06:08:01Z</time></trkpt><trkpt lat="46.2139079482335" lon="10.167177883585278"><ele>428.0</ele><time>2026-05-02T06:08:06Z</time></trkpt><trkpt lat="46.2139189073583" lon="10.167272821949604"><ele>428.0</ele><time>2026-05-02T06:08:12Z</time></trkpt><trkpt lat="46.21394858305375" lon="10.167384176726518"><ele>428.0</ele><time>2026-05-02T06:08:19Z</time></trkpt><trkpt lat="46.21397545708822" lon="10.167479220188811"><ele>428.00000000000006</ele><time>2026-05-02T06:08:25Z</time></trkpt><trkpt lat="46.21399556271053" lon="10.167576667059013"><ele>428.0</ele><time>2026-05-02T06:08:30Z</time></trkpt><trkpt lat="46.214025621002854" lon="10.167682192960118"><ele>428.14285714285717</ele><time>2026-05-02T06:08:34Z</time></trkpt><trkpt lat="46.21404369492147" lon="10.167794182200232"><ele>428.2857142857143</ele><time>2026-05-02T06:08:42Z</time></trkpt><trkpt lat="46.21406519664452" lon="10.167893039298091"><ele>428.42857142857144</ele><time>2026-05-02T06:08:48Z</time></trkpt><trkpt lat="46.21410101657057" lon="10.167978725150464"><ele>428.57142857142856</ele><time>2026-05-02T06:08:53Z</time></trkpt><trkpt lat="46.214108887327534" lon="10.168076485157647"><ele>428.7142857142857</ele><time>2026-05-02T06:08:59Z</time></trkpt><trkpt lat="46.214135762664" lon="10.168175397875956"><ele>428.8571428571429</ele><time>2026-05-02T06:09:05Z</time></trkpt><trkpt lat="46.2141587391205" lon="10.16828825776292"><ele>429.0</ele><time>2026-05-02T06:09:12Z</time></trkpt><trkpt lat="46.214175949351706" lon="10.168393805151895"><ele>429.0</ele><time>2026-05-02T06:09:19Z</time></trkpt><trkpt lat="46.21413686196443" lon="10.168481205665996"><ele>429.0</ele><time>2026-05-02T06:09:24Z</time></trkpt><trkpt lat="46.214053212120156" lon="10.16847701044174"><ele>429.0</ele><time>2026-05-02T06:09:31.999Z</time></trkpt><trkpt lat="46.214002412074684" lon="10.1684122203459"><ele>429.0</ele><time>2026-05-02T06:09:36Z</time></trkpt><trkpt lat="46.21396068424697" lon="10.16833455063842"><ele>429.0</ele><time>2026-05-02T06:09:41Z</time></trkpt><trkpt lat="46.21390958264536" lon="10.168268050908635"><ele>429.0</ele><time>2026-05-02T06:09:47Z</time></trkpt><trkpt lat="46.213860319589806" lon="10.168182871734045"><ele>429.0</ele><time>2026-05-02T06:09:53Z</time></trkpt><trkpt lat="46.21381054113004" lon="10.168126118058206"><ele>428.8333333333333</ele><time>2026-05-02T06:09:59Z</time></trkpt><trkpt lat="46.213767921790044" lon="10.168044390008717"><ele>428.66666666666663</ele><time>2026-05-02T06:10:05Z</time></trkpt><trkpt lat="46.213717649014015" lon="10.167959711227613"><ele>428.5</ele><time>2026-05-02T06:10:11Z</time></trkpt><trkpt lat="46.21367284170908" lon="10.167855676241224"><ele>428.3333333333333</ele><time>2026-05-02T06:10:16Z</time></trkpt><trkpt lat="46.21361330694087" lon="10.167774276021294"><ele>428.16666666666663</ele><time>2026-05-02T06:10:22Z</time></trkpt><trkpt lat="46.21357151737466" lon="10.167690789926683"><ele>428.0</ele><time>2026-05-02T06:10:29Z</time></trkpt><trkpt lat="46.213536673444914" lon="10.167599278912386"><ele>428.00000000000006</ele><time>2026-05-02T06:10:34Z</time></trkpt><trkpt lat="46.2134860741404" lon="10.167535326235905"><ele>428.0</ele><time>2026-05-02T06:10:40Z</time></trkpt><trkpt lat="46.21344556270819" lon="10.167454971787597"><ele>428.0</ele><time>2026-05-02T06:10:46Z</time></trkpt><trkpt lat="46.213403208108126" lon="10.167352872097787"><ele>428.0</ele><time>2026-05-02T06:10:52Z</time></trkpt><trkpt lat="46.21333850293888" lon="10.167299593105838"><ele>428.0</ele><time>2026-05-02T06:10:58Z</time></trkpt><trkpt lat="46.21330188691981" lon="10.16722405871299"><ele>428.00000000000006</ele><time>2026-05-02T06:11:03Z</time></trkpt><trkpt lat="46.21325928884884" lon="10.167142421930249"><ele>428.0</ele><time>2026-05-02T06:11:08Z</time></trkpt><trkpt lat="46.2132149609953" lon="10.1670684129019"><ele>428.00000000000006</ele><time>2026-05-02T06:11:13Z</time></trkpt><trkpt lat="46.21317590582772" lon="10.166994947703172"><ele>428.0</ele><time>2026-05-02T06:11:18.999Z</time></trkpt><trkpt lat="46.213131969443616" lon="10.166927106612613"><ele>428.0</ele><time>2026-05-02T06:11:23.999Z</time></trkpt><trkpt lat="46.21308865856093" lon="10.166857422504833"><ele>428.0</ele><time>2026-05-02T06:11:28.999Z</time></trkpt><trkpt lat="46.21304266951239" lon="10.166776941876511"><ele>428.0</ele><time>2026-05-02T06:11:33.999Z</time></trkpt><trkpt lat="46.213004590981804" lon="10.166692679339878"><ele>428.00000000000006</ele><time>2026-05-02T06:11:38.999Z</time></trkpt><trkpt lat="46.21295503817213" lon="10.166609260575578"><ele>428.0</ele><time>2026-05-02T06:11:45Z</time></trkpt><trkpt lat="46.21291505063178" lon="10.166536198541644"><ele>427.8571428571429</ele><time>2026-05-02T06:11:50Z</time></trkpt><trkpt lat="46.21286986243103" lon="10.166467026452752"><ele>427.7142857142857</ele><time>2026-05-02T06:11:55Z</time></trkpt><trkpt lat="46.212834895256584" lon="10.166375817992083"><ele>427.57142857142856</ele><time>2026-05-02T06:12:01Z</time></trkpt><trkpt lat="46.212782452621774" lon="10.166310618659159"><ele>427.42857142857144</ele><time>2026-05-02T06:12:11Z</time></trkpt><trkpt lat="46.212738581755936" lon="10.166224178885264"><ele>427.2857142857143</ele><time>2026-05-02T06:12:17Z</time></trkpt><trkpt lat="46.21269170722343" lon="10.166142461203505"><ele>427.14285714285717</ele><time>2026-05-02T06:12:23Z</time></trkpt><trkpt lat="46.21264131066636" lon="10.166077404456118"><ele>427.0</ele><time>2026-05-02T06:12:29Z</time></trkpt><trkpt lat="46.21261420792848" lon="10.165993506827444"><ele>427.0</ele><time>2026-05-02T06:12:34Z</time></trkpt><trkpt lat="46.21257126047018" lon="10.165909391648723"><ele>427.0</ele><time>2026-05-02T06:12:39Z</time></trkpt><trkpt lat="46.21251458371578" lon="10.165842347079998"><ele>427.0</ele><time>2026-05-02T06:12:47Z</time></trkpt><trkpt lat="46.212472170484176" lon="10.165768467085238"><ele>427.0</ele><time>2026-05-02T06:12:53Z</time></trkpt><trkpt lat="46.21242972400093" lon="10.16566971514319"><ele>427.0</ele><time>2026-05-02T06:12:58Z</time></trkpt><trkpt lat="46.212371600055924" lon="10.165601273682647"><ele>427.0</ele><time>2026-05-02T06:13:04Z</time></trkpt><trkpt lat="46.2123227623301" lon="10.165518152811982"><ele>427.0</ele><time>2026-05-02T06:13:09Z</time></trkpt><trkpt lat="46.21229009759853" lon="10.165437355698721"><ele>426.85714285714283</ele><time>2026-05-02T06:13:14Z</time></trkpt><trkpt lat="46.21224684491463" lon="10.16535107425404"><ele>426.7142857142857</ele><time>2026-05-02T06:13:20Z</time></trkpt><trkpt lat="46.21220506644644" lon="10.165272437657919"><ele>426.57142857142856</ele><time>2026-05-02T06:13:27Z</time></trkpt><trkpt lat="46.21216216588523" lon="10.165198084798101"><ele>426.42857142857144</ele><time>2026-05-02T06:13:31Z</time></trkpt><trkpt lat="46.21211540702999" lon="10.165128482392406"><ele>426.2857142857143</ele><time>2026-05-02T06:13:35.999Z</time></trkpt><trkpt lat="46.21207712053475" lon="10.165052306949649"><ele>426.1428571428571</ele><time>2026-05-02T06:13:40.999Z</time></trkpt><trkpt lat="46.21201258266735" lon="10.164993913690438"><ele>426.0</ele><time>2026-05-02T06:13:46.999Z</time></trkpt><trkpt lat="46.21199230367774" lon="10.164882132696667"><ele>425.85714285714283</ele><time>2026-05-02T06:13:52Z</time></trkpt><trkpt lat="46.21194587479275" lon="10.164812359083385"><ele>425.7142857142857</ele><time>2026-05-02T06:13:58Z</time></trkpt><trkpt lat="46.21191010602165" lon="10.164734444007568"><ele>425.57142857142856</ele><time>2026-05-02T06:14:03Z</time></trkpt><trkpt lat="46.21185450702472" lon="10.164666856937522"><ele>425.42857142857144</ele><time>2026-05-02T06:14:08Z</time></trkpt><trkpt lat="46.211796870006694" lon="10.164600584752062"><ele>425.2857142857143</ele><time>2026-05-02T06:14:17Z</time></trkpt><trkpt lat="46.211753163328304" lon="10.164506410973402"><ele>425.1428571428571</ele><time>2026-05-02T06:14:22Z</time></trkpt><trkpt lat="46.21170240006381" lon="10.164452017549882"><ele>425.0</ele><time>2026-05-02T06:14:26Z</time></trkpt><trkpt lat="46.211661595944065" lon="10.16437566456931"><ele>425.0</ele><time>2026-05-02T06:14:32Z</time></trkpt><trkpt lat="46.2116239397537" lon="10.164283861241843"><ele>425.0</ele><time>2026-05-02T06:14:37Z</time></trkpt><trkpt lat="46.211591098218044" lon="10.164193657918702"><ele>425.0</ele><time>2026-05-02T06:14:42Z</time></trkpt><trkpt lat="46.211544540871515" lon="10.164112566202645"><ele>425.0</ele><time>2026-05-02T06:14:48Z</time></trkpt><trkpt lat="46.211471268927156" lon="10.16405051190932"><ele>425.0</ele><time>2026-05-02T06:14:58Z</time></trkpt><trkpt lat="46.211429587738344" lon="10.16394810420876"><ele>425.0</ele><time>2026-05-02T06:15:04Z</time></trkpt><trkpt lat="46.211391569649926" lon="10.163875033704269"><ele>425.0</ele><time>2026-05-02T06:15:08Z</time></trkpt><trkpt lat="46.211346560820765" lon="10.163800297059831"><ele>424.42857142857144</ele><time>2026-05-02T06:15:13Z</time></trkpt><trkpt lat="46.21130758673417" lon="10.163724973292009"><ele>423.85714285714283</ele><time>2026-05-02T06:15:17Z</time></trkpt><trkpt lat="46.21126674722462" lon="10.163635913479602"><ele>423.28571428571433</ele><time>2026-05-02T06:15:23Z</time></trkpt><trkpt lat="46.211223998322176" lon="10.163565382131468"><ele>422.7142857142857</ele><time>2026-05-02T06:15:28Z</time></trkpt><trkpt lat="46.21117856648667" lon="10.163478656116801"><ele>422.14285714285717</ele><time>2026-05-02T06:15:33Z</time></trkpt><trkpt lat="46.21113940725653" lon="10.163400008761366"><ele>421.5714285714286</ele><time>2026-05-02T06:15:37.999Z</time></trkpt><trkpt lat="46.211092370542204" lon="10.163310709817868"><ele>421.0</ele><time>2026-05-02T06:15:42.999Z</time></trkpt><trkpt lat="46.21104425875253" lon="10.163229873297912"><ele>421.28571428571433</ele><time>2026-05-02T06:15:48.999Z</time></trkpt><trkpt lat="46.210995853776" lon="10.163161472317586"><ele>421.57142857142856</ele><time>2026-05-02T06:15:54Z</time></trkpt><trkpt lat="46.21095732516099" lon="10.163084928840554"><ele>421.8571428571429</ele><time>2026-05-02T06:15:59Z</time></trkpt><trkpt lat="46.210914142346425" lon="10.163000002247482"><ele>422.14285714285717</ele><time>2026-05-02T06:16:05Z</time></trkpt><trkpt lat="46.21087531981774" lon="10.162924132892817"><ele>422.42857142857144</ele><time>2026-05-02T06:16:10Z</time></trkpt><trkpt lat="46.21082905785375" lon="10.162850633740494"><ele>422.7142857142857</ele><time>2026-05-02T06:16:16Z</time></trkpt><trkpt lat="46.21077496379918" lon="10.162774426072296"><ele>423.0</ele><time>2026-05-02T06:16:21Z</time></trkpt><trkpt lat="46.210731415521984" lon="10.162697574398365"><ele>423.0</ele><time>2026-05-02T06:16:27Z</time></trkpt><trkpt lat="46.210687692845156" lon="10.16263108627483"><ele>423.0</ele><time>2026-05-02T06:16:31Z</time></trkpt><trkpt lat="46.210647676809316" lon="10.162526836481835"><ele>423.0</ele><time>2026-05-02T06:16:39Z</time></trkpt><trkpt lat="46.21060258909051" lon="10.16244671872203"><ele>423.0</ele><time>2026-05-02T06:16:45Z</time></trkpt><trkpt lat="46.210550948413314" lon="10.162368219398246"><ele>423.0</ele><time>2026-05-02T06:16:51Z</time></trkpt><trkpt lat="46.2105073052551" lon="10.162301368148794"><ele>423.0</ele><time>2026-05-02T06:16:57Z</time></trkpt><trkpt lat="46.210461740669075" lon="10.162220736908912"><ele>423.0</ele><time>2026-05-02T06:17:02Z</time></trkpt><trkpt lat="46.21041847348418" lon="10.162150045993869"><ele>422.7142857142857</ele><time>2026-05-02T06:17:07Z</time></trkpt><trkpt lat="46.21037892101679" lon="10.162067193884438"><ele>422.42857142857144</ele><time>2026-05-02T06:17:13Z</time></trkpt><trkpt lat="46.21033356092857" lon="10.161988934477632"><ele>422.14285714285717</ele><time>2026-05-02T06:17:18Z</time></trkpt><trkpt lat="46.21029686657468" lon="10.161890224800818"><ele>421.8571428571429</ele><time>2026-05-02T06:17:24Z</time></trkpt><trkpt lat="46.21025000113493" lon="10.161828975241594"><ele>421.57142857142856</ele><time>2026-05-02T06:17:29Z</time></trkpt><trkpt lat="46.21020701182086" lon="10.161760006144638"><ele>421.28571428571433</ele><time>2026-05-02T06:17:34Z</time></trkpt><trkpt lat="46.21016687348013" lon="10.16167600900812"><ele>421.0</ele><time>2026-05-02T06:17:40Z</time></trkpt><trkpt lat="46.210126839242086" lon="10.161599725453446"><ele>421.00000000000006</ele><time>2026-05-02T06:17:45Z</time></trkpt><trkpt lat="46.21008107395126" lon="10.161536185344008"><ele>421.0</ele><time>2026-05-02T06:17:49.999Z</time></trkpt><trkpt lat="46.21003731011597" lon="10.161459063963244"><ele>421.0</ele><time>2026-05-02T06:17:55.999Z</time></trkpt><trkpt lat="46.20999682470114" lon="10.161370538926551"><ele>421.0</ele><time>2026-05-02T06:18:02Z</time></trkpt><trkpt lat="46.209957710184696" lon="10.161291759556804"><ele>421.0</ele><time>2026-05-02T06:18:07Z</time></trkpt><trkpt lat="46.20991166156697" lon="10.161225150225"><ele>421.00000000000006</ele><time>2026-05-02T06:18:12Z</time></trkpt><trkpt lat="46.20986690688279" lon="10.161143330497975"><ele>421.0</ele><time>2026-05-02T06:18:18Z</time></trkpt><trkpt lat="46.20981751309212" lon="10.161059887319933"><ele>421.00000000000006</ele><time>2026-05-02T06:18:24Z</time></trkpt><trkpt lat="46.209776235258396" lon="10.16098294030288"><ele>421.0</ele><time>2026-05-02T06:18:29Z</time></trkpt><trkpt lat="46.209727848333465" lon="10.160913192034876"><ele>421.0</ele><time>2026-05-02T06:18:35Z</time></trkpt><trkpt lat="46.20968480318645" lon="10.160834534374924"><ele>421.0</ele><time>2026-05-02T06:18:40Z</time></trkpt><trkpt lat="46.209635548450166" lon="10.160763669645752"><ele>421.0</ele><time>2026-05-02T06:18:45Z</time></trkpt><trkpt lat="46.20959043529712" lon="10.160649150673558"><ele>421.00000000000006</ele><time>2026-05-02T06:18:52Z</time></trkpt><trkpt lat="46.209573228387754" lon="10.160551217662846"><ele>421.0</ele><time>2026-05-02T06:19:03Z</time></trkpt><trkpt lat="46.2095858426409" lon="10.160434611120891"><ele>421.00000000000006</ele><time>2026-05-02T06:19:10Z</time></trkpt><trkpt lat="46.20962824271794" lon="10.160357578426007"><ele>421.0</ele><time>2026-05-02T06:19:13Z</time></trkpt><trkpt lat="46.2096681080576" lon="10.160286833686165"><ele>421.0</ele><time>2026-05-02T06:19:15Z</time></trkpt><trkpt lat="46.20972492267402" lon="10.160212993985052"><ele>421.0</ele><time>2026-05-02T06:19:21Z</time></trkpt><trkpt lat="46.209784756938234" lon="10.160148059049972"><ele>421.0</ele><time>2026-05-02T06:19:28Z</time></trkpt><trkpt lat="46.209837026356915" lon="10.160089721243645"><ele>421.00000000000006</ele><time>2026-05-02T06:19:33Z</time></trkpt><trkpt lat="46.20989866867205" lon="10.160028451627044"><ele>421.0</ele><time>2026-05-02T06:19:39Z</time></trkpt><trkpt lat="46.20995056742008" lon="10.159974786504238"><ele>421.14285714285717</ele><time>2026-05-02T06:19:44Z</time></trkpt><trkpt lat="46.20999902950939" lon="10.159914606396434"><ele>421.2857142857143</ele><time>2026-05-02T06:19:49Z</time></trkpt><trkpt lat="46.210047062531764" lon="10.159855485330194"><ele>421.42857142857144</ele><time>2026-05-02T06:19:53.999Z</time></trkpt><trkpt lat="46.210101092654675" lon="10.159789848023188"><ele>421.57142857142856</ele><time>2026-05-02T06:19:59.999Z</time></trkpt><trkpt lat="46.21015845012443" lon="10.159729724603983"><ele>421.7142857142857</ele><time>2026-05-02T06:20:06Z</time></trkpt><trkpt lat="46.21022250208053" lon="10.159669353689742"><ele>421.8571428571429</ele><time>2026-05-02T06:20:13Z</time></trkpt><trkpt lat="46.21028466371405" lon="10.159626774714319"><ele>422.0</ele><time>2026-05-02T06:20:19Z</time></trkpt><trkpt lat="46.21033915105481" lon="10.159565138191672"><ele>422.0</ele><time>2026-05-02T06:20:24Z</time></trkpt><trkpt lat="46.21039578620635" lon="10.159512282675783"><ele>422.0</ele><time>2026-05-02T06:20:29Z</time></trkpt><trkpt lat="46.21045172617733" lon="10.159453919905328"><ele>422.0</ele><time>2026-05-02T06:20:34Z</time></trkpt><trkpt lat="46.210510494483856" lon="10.159384381014466"><ele>422.0</ele><time>2026-05-02T06:20:40Z</time></trkpt><trkpt lat="46.21057829835423" lon="10.159335481737878"><ele>422.0</ele><time>2026-05-02T06:20:46Z</time></trkpt><trkpt lat="46.21063552187312" lon="10.15928166999404"><ele>422.0</ele><time>2026-05-02T06:20:51Z</time></trkpt><trkpt lat="46.21069700220053" lon="10.1592336222715"><ele>422.0</ele><time>2026-05-02T06:20:57Z</time></trkpt><trkpt lat="46.210752745620155" lon="10.159169374040191"><ele>421.8571428571429</ele><time>2026-05-02T06:21:02Z</time></trkpt><trkpt lat="46.21080842043276" lon="10.159123176846188"><ele>421.7142857142857</ele><time>2026-05-02T06:21:07Z</time></trkpt><trkpt lat="46.21086788050893" lon="10.15906440028187"><ele>421.57142857142856</ele><time>2026-05-02T06:21:12Z</time></trkpt><trkpt lat="46.21092885421351" lon="10.159028378132149"><ele>421.42857142857144</ele><time>2026-05-02T06:21:18Z</time></trkpt><trkpt lat="46.211009273560336" lon="10.159008596387476"><ele>421.2857142857143</ele><time>2026-05-02T06:21:21Z</time></trkpt><trkpt lat="46.21105885177566" lon="10.159068760558407"><ele>421.14285714285717</ele><time>2026-05-02T06:21:29Z</time></trkpt><trkpt lat="46.21112508570471" lon="10.159042521578144"><ele>421.0</ele><time>2026-05-02T06:21:34Z</time></trkpt><trkpt lat="46.21116347065965" lon="10.15913555067834"><ele>421.00000000000006</ele><time>2026-05-02T06:21:40Z</time></trkpt><trkpt lat="46.21120841622209" lon="10.159225333449788"><ele>421.0</ele><time>2026-05-02T06:21:44Z</time></trkpt><trkpt lat="46.21124602003323" lon="10.159314504903966"><ele>421.0</ele><time>2026-05-02T06:21:49.999Z</time></trkpt><trkpt lat="46.21128879608718" lon="10.159385314450537"><ele>421.0</ele><time>2026-05-02T06:21:54.999Z</time></trkpt><trkpt lat="46.211350518543135" lon="10.159359521691918"><ele>421.0</ele><time>2026-05-02T06:22:02.999Z</time></trkpt><trkpt lat="46.21140552091098" lon="10.159293864498931"><ele>421.00000000000006</ele><time>2026-05-02T06:22:08.999Z</time></trkpt><trkpt lat="46.21147666222795" lon="10.159248178683146"><ele>421.0</ele><time>2026-05-02T06:22:13Z</time></trkpt><trkpt lat="46.21153560894264" lon="10.159199653641592"><ele>421.00000000000006</ele><time>2026-05-02T06:22:18Z</time></trkpt><trkpt lat="46.211592774880444" lon="10.159149981180983"><ele>421.0</ele><time>2026-05-02T06:22:24Z</time></trkpt><trkpt lat="46.21164397294531" lon="10.159083523313173"><ele>421.0</ele><time>2026-05-02T06:22:30Z</time></trkpt><trkpt lat="46.21169429178652" lon="10.159016619042617"><ele>421.0</ele><time>2026-05-02T06:22:35Z</time></trkpt><trkpt lat="46.21176765247311" lon="10.15901900851452"><ele>421.0</ele><time>2026-05-02T06:22:41Z</time></trkpt><trkpt lat="46.21183646552995" lon="10.159083078538877"><ele>421.00000000000006</ele><time>2026-05-02T06:22:45Z</time></trkpt><trkpt lat="46.21187641795839" lon="10.159173301878589"><ele>421.0</ele><time>2026-05-02T06:22:50Z</time></trkpt><trkpt lat="46.21192280213061" lon="10.15925451738877"><ele>421.00000000000006</ele><time>2026-05-02T06:22:55Z</time></trkpt><trkpt lat="46.21195095098308" lon="10.159348503273502"><ele>421.0</ele><time>2026-05-02T06:23:01Z</time></trkpt><trkpt lat="46.211971448242195" lon="10.159435574525475"><ele>421.0</ele><time>2026-05-02T06:23:06Z</time></trkpt><trkpt lat="46.2119963515715" lon="10.159520487875946"><ele>421.0</ele><time>2026-05-02T06:23:11Z</time></trkpt><trkpt lat="46.21204005421305" lon="10.159611419452135"><ele>421.0</ele><time>2026-05-02T06:23:18Z</time></trkpt><trkpt lat="46.21207493020896" lon="10.159691593740865"><ele>421.00000000000006</ele><time>2026-05-02T06:23:23Z</time></trkpt><trkpt lat="46.21209947740137" lon="10.15977685680753"><ele>421.0</ele><time>2026-05-02T06:23:28Z</time></trkpt><trkpt lat="46.212138118102025" lon="10.159872524091659"><ele>421.14285714285717</ele><time>2026-05-02T06:23:33Z</time></trkpt><trkpt lat="46.212162619303236" lon="10.159963295581463"><ele>421.2857142857143</ele><time>2026-05-02T06:23:39Z</time></trkpt><trkpt lat="46.21218270102574" lon="10.160061517105726"><ele>421.42857142857144</ele><time>2026-05-02T06:23:45Z</time></trkpt><trkpt lat="46.21221397692439" lon="10.16014092838151"><ele>421.57142857142856</ele><time>2026-05-02T06:23:50Z</time></trkpt><trkpt lat="46.21224161308856" lon="10.160226387483963"><ele>421.7142857142857</ele><time>2026-05-02T06:23:55Z</time></trkpt><trkpt lat="46.2122697989853" lon="10.16032890073547"><ele>421.8571428571429</ele><time>2026-05-02T06:24:02Z</time></trkpt><trkpt lat="46.21230097556743" lon="10.160409136437021"><ele>422.0</ele><time>2026-05-02T06:24:06Z</time></trkpt><trkpt lat="46.212341126640496" lon="10.160487975912831"><ele>422.3333333333333</ele><time>2026-05-02T06:24:10.999Z</time></trkpt><trkpt lat="46.2124103613316" lon="10.160601650953739"><ele>422.66666666666663</ele><time>2026-05-02T06:24:20Z</time></trkpt><trkpt lat="46.212408428151065" lon="10.160706795570785"><ele>423.0</ele><time>2026-05-02T06:24:25Z</time></trkpt><trkpt lat="46.212406629435044" lon="10.160819740907533"><ele>423.33333333333337</ele><time>2026-05-02T06:24:33Z</time></trkpt><trkpt lat="46.212447975942325" lon="10.160908900047147"><ele>423.6666666666667</ele><time>2026-05-02T06:24:37Z</time></trkpt><trkpt lat="46.21247736914058" lon="10.160994527008098"><ele>424.0</ele><time>2026-05-02T06:24:41Z</time></trkpt><trkpt lat="46.212494068583915" lon="10.161089512736453"><ele>424.0</ele><time>2026-05-02T06:24:45Z</time></trkpt><trkpt lat="46.212555560476446" lon="10.161152637430707"><ele>424.0</ele><time>2026-05-02T06:24:51Z</time></trkpt><trkpt lat="46.212592374329446" lon="10.161227626112854"><ele>424.0</ele><time>2026-05-02T06:24:56Z</time></trkpt><trkpt lat="46.21261911484118" lon="10.161325213643567"><ele>424.0</ele><time>2026-05-02T06:25:01Z</time></trkpt><trkpt lat="46.21264077444077" lon="10.16142134195093"><ele>424.0</ele><time>2026-05-02T06:25:09Z</time></trkpt><trkpt lat="46.21268307892074" lon="10.161507464469826"><ele>424.0</ele><time>2026-05-02T06:25:16Z</time></trkpt><trkpt lat="46.21270658720543" lon="10.161609301581565"><ele>424.0</ele><time>2026-05-02T06:25:21Z</time></trkpt><trkpt lat="46.21273915795515" lon="10.161697176595915"><ele>424.14285714285717</ele><time>2026-05-02T06:25:27Z</time></trkpt><trkpt lat="46.21275812735269" lon="10.16179190267589"><ele>424.2857142857143</ele><time>2026-05-02T06:25:33Z</time></trkpt><trkpt lat="46.21279116764234" lon="10.161870649286511"><ele>424.42857142857144</ele><time>2026-05-02T06:25:38Z</time></trkpt><trkpt lat="46.212855443150126" lon="10.161887113905745"><ele>424.57142857142856</ele><time>2026-05-02T06:25:44Z</time></trkpt><trkpt lat="46.212917220824" lon="10.161864584352484"><ele>424.71428571428567</ele><time>2026-05-02T06:25:52Z</time></trkpt><trkpt lat="46.21296031609408" lon="10.161794785822158"><ele>424.85714285714283</ele><time>2026-05-02T06:25:57Z</time></trkpt><trkpt lat="46.21300608377892" lon="10.161731768942117"><ele>425.0</ele><time>2026-05-02T06:26:02Z</time></trkpt><trkpt lat="46.21305341847509" lon="10.161654116142504"><ele>425.0</ele><time>2026-05-02T06:26:07Z</time></trkpt><trkpt lat="46.21309128402139" lon="10.161739680382759"><ele>425.0</ele><time>2026-05-02T06:26:21.999Z</time></trkpt><trkpt lat="46.213112818942754" lon="10.16183273655279"><ele>425.0</ele><time>2026-05-02T06:26:26Z</time></trkpt><trkpt lat="46.213126361140375" lon="10.16193554851783"><ele>425.0</ele><time>2026-05-02T06:26:29Z</time></trkpt><trkpt lat="46.213140903669725" lon="10.162046052863381"><ele>425.0</ele><time>2026-05-02T06:26:35Z</time></trkpt><trkpt lat="46.21312988926947" lon="10.162143779843207"><ele>425.0</ele><time>2026-05-02T06:26:42Z</time></trkpt><trkpt lat="46.21312392754174" lon="10.162237141538242"><ele>425.0</ele><time>2026-05-02T06:26:47Z</time></trkpt><trkpt lat="46.213146712771746" lon="10.16232810264751"><ele>425.0</ele><time>2026-05-02T06:26:52Z</time></trkpt><trkpt lat="46.213144863657924" lon="10.162431277277582"><ele>425.0</ele><time>2026-05-02T06:26:57Z</time></trkpt><trkpt lat="46.21314256241953" lon="10.162539035905482"><ele>425.0</ele><time>2026-05-02T06:27:03Z</time></trkpt><trkpt lat="46.21314018677236" lon="10.162650278943554"><ele>425.0</ele><time>2026-05-02T06:27:10Z</time></trkpt><trkpt lat="46.21314312573782" lon="10.162766749110212"><ele>425.0</ele><time>2026-05-02T06:27:17Z</time></trkpt><trkpt lat="46.21314715104636" lon="10.162865363863999"><ele>425.0</ele><time>2026-05-02T06:27:22Z</time></trkpt><trkpt lat="46.213153037010954" lon="10.162968116136199"><ele>425.0</ele><time>2026-05-02T06:27:27Z</time></trkpt><trkpt lat="46.213145033621124" lon="10.16306865733754"><ele>425.0</ele><time>2026-05-02T06:27:34Z</time></trkpt><trkpt lat="46.21314075896638" lon="10.163169204619338"><ele>425.0</ele><time>2026-05-02T06:27:39Z</time></trkpt><trkpt lat="46.21314497788507" lon="10.163275467886379"><ele>425.0</ele><time>2026-05-02T06:27:45Z</time></trkpt><trkpt lat="46.213140340783795" lon="10.163370617016342"><ele>425.0</ele><time>2026-05-02T06:27:50Z</time></trkpt><trkpt lat="46.21313802370798" lon="10.16346300573405"><ele>425.0</ele><time>2026-05-02T06:27:57Z</time></trkpt><trkpt lat="46.21312935815574" lon="10.163553559731094"><ele>425.0</ele><time>2026-05-02T06:28:02Z</time></trkpt><trkpt lat="46.21312911838873" lon="10.163663986959708"><ele>425.0</ele><time>2026-05-02T06:28:08Z</time></trkpt><trkpt lat="46.213117719546545" lon="10.163763051445398"><ele>425.1428571428571</ele><time>2026-05-02T06:28:13.999Z</time></trkpt><trkpt lat="46.21313521883524" lon="10.163862032821953"><ele>425.2857142857143</ele><time>2026-05-02T06:28:18.999Z</time></trkpt><trkpt lat="46.21306544559734" lon="10.163800167394205"><ele>425.42857142857144</ele><time>2026-05-02T06:28:26.999Z</time></trkpt><trkpt lat="46.21302849872258" lon="10.163703299614868"><ele>425.57142857142856</ele><time>2026-05-02T06:28:33Z</time></trkpt><trkpt lat="46.212990750926494" lon="10.163619592729917"><ele>425.7142857142857</ele><time>2026-05-02T06:28:40Z</time></trkpt><trkpt lat="46.212942842543924" lon="10.16354007514341"><ele>425.85714285714283</ele><time>2026-05-02T06:28:46Z</time></trkpt><trkpt lat="46.21290628667323" lon="10.163460748503526"><ele>426.0</ele><time>2026-05-02T06:28:51Z</time></trkpt><trkpt lat="46.21288381972787" lon="10.163369172170032"><ele>425.99999999999994</ele><time>2026-05-02T06:28:56Z</time></trkpt><trkpt lat="46.212838698545916" lon="10.16327686483715"><ele>426.0</ele><time>2026-05-02T06:29:03Z</time></trkpt><trkpt lat="46.21282052496027" lon="10.163179795985489"><ele>426.0</ele><time>2026-05-02T06:29:08Z</time></trkpt><trkpt lat="46.21278696447127" lon="10.16310220401014"><ele>426.0</ele><time>2026-05-02T06:29:13Z</time></trkpt><trkpt lat="46.21273634884097" lon="10.163010059206119"><ele>426.0</ele><time>2026-05-02T06:29:19Z</time></trkpt><trkpt lat="46.21270952546504" lon="10.162925120692918"><ele>425.99999999999994</ele><time>2026-05-02T06:29:24Z</time></trkpt><trkpt lat="46.21267620121683" lon="10.162847843111912"><ele>426.0</ele><time>2026-05-02T06:29:29Z</time></trkpt><trkpt lat="46.21264850418722" lon="10.162759668217348"><ele>425.85714285714283</ele><time>2026-05-02T06:29:34Z</time></trkpt><trkpt lat="46.21262040829238" lon="10.162678250129959"><ele>425.7142857142857</ele><time>2026-05-02T06:29:39Z</time></trkpt><trkpt lat="46.21259026370414" lon="10.162585647391188"><ele>425.57142857142856</ele><time>2026-05-02T06:29:46Z</time></trkpt><trkpt lat="46.212578478091395" lon="10.162491855170744"><ele>425.42857142857144</ele><time>2026-05-02T06:29:51Z</time></trkpt><trkpt lat="46.2125409914654" lon="10.162403138718874"><ele>425.2857142857143</ele><time>2026-05-02T06:29:57Z</time></trkpt><trkpt lat="46.212495681414026" lon="10.162307839744946"><ele>425.1428571428571</ele><time>2026-05-02T06:30:03Z</time></trkpt><trkpt lat="46.21244801629891" lon="10.162231547995448"><ele>425.0</ele><time>2026-05-02T06:30:09Z</time></trkpt><trkpt lat="46.21239919042603" lon="10.162150596316623"><ele>425.0</ele><time>2026-05-02T06:30:14Z</time></trkpt><trkpt lat="46.21236065857935" lon="10.162075957685264"><ele>425.0</ele><time>2026-05-02T06:30:18.999Z</time></trkpt><trkpt lat="46.2123245837758" lon="10.161979378321652"><ele>425.0</ele><time>2026-05-02T06:30:23.999Z</time></trkpt><trkpt lat="46.212281255952185" lon="10.161900320865215"><ele>425.0</ele><time>2026-05-02T06:30:29.999Z</time></trkpt><trkpt lat="46.21224922636855" lon="10.161816519815995"><ele>425.0</ele><time>2026-05-02T06:30:34.999Z</time></trkpt><trkpt lat="46.21221478678115" lon="10.161736174224389"><ele>425.0</ele><time>2026-05-02T06:30:41Z</time></trkpt><trkpt lat="46.212168050976935" lon="10.161655302623476"><ele>425.0</ele><time>2026-05-02T06:30:47Z</time></trkpt><trkpt lat="46.2121253879454" lon="10.161562340730685"><ele>424.57142857142856</ele><time>2026-05-02T06:30:52Z</time></trkpt><trkpt lat="46.21210805108522" lon="10.16145904379674"><ele>424.1428571428571</ele><time>2026-05-02T06:30:58Z</time></trkpt><trkpt lat="46.2120905476243" lon="10.161356370369633"><ele>423.7142857142857</ele><time>2026-05-02T06:31:04Z</time></trkpt><trkpt lat="46.212050174756875" lon="10.161284611484577"><ele>423.2857142857143</ele><time>2026-05-02T06:31:11Z</time></trkpt><trkpt lat="46.211994778257164" lon="10.161211478827358"><ele>422.8571428571429</ele><time>2026-05-02T06:31:16Z</time></trkpt><trkpt lat="46.21195673405273" lon="10.161134268453685"><ele>422.42857142857144</ele><time>2026-05-02T06:31:20Z</time></trkpt><trkpt lat="46.21192068124543" lon="10.16104452242682"><ele>422.0</ele><time>2026-05-02T06:31:26Z</time></trkpt><trkpt lat="46.21189634362439" lon="10.160948481238954"><ele>422.0</ele><time>2026-05-02T06:31:33Z</time></trkpt><trkpt lat="46.21186897277079" lon="10.160852993720217"><ele>422.0</ele><time>2026-05-02T06:31:38Z</time></trkpt><trkpt lat="46.21184343979877" lon="10.160763630862053"><ele>422.0</ele><time>2026-05-02T06:31:43Z</time></trkpt><trkpt lat="46.21180043829779" lon="10.16068179924446"><ele>422.0</ele><time>2026-05-02T06:31:49Z</time></trkpt><trkpt lat="46.21176063418126" lon="10.160599896733084"><ele>422.0</ele><time>2026-05-02T06:31:55Z</time></trkpt><trkpt lat="46.21169104174502" lon="10.16053093084005"><ele>422.0</ele><time>2026-05-02T06:32:08Z</time></trkpt></trkseg></trk></gpx>